createdAt,value
2022-09-25T00:11:41.509Z,20.70
2022-09-25T00:41:49.963Z,14.30
2022-09-25T01:11:59.452Z,13.93
2022-09-25T01:42:19.280Z,12.80
2022-09-25T02:12:34.550Z,12.43
2022-09-25T02:42:56.937Z,10.67
2022-09-25T03:13:21.243Z,9.57
2022-09-25T03:43:33.611Z,12.60
2022-09-25T04:13:49.648Z,10.50
2022-09-25T04:43:58.560Z,9.97
2022-09-25T05:14:14.261Z,7.67
2022-09-25T05:44:26.196Z,10.60
2022-09-25T06:14:37.211Z,9.57
2022-09-25T06:44:48.838Z,10.77
2022-09-25T07:14:58.246Z,9.33
2022-09-25T07:45:07.093Z,11.13
2022-09-25T08:15:17.316Z,12.53
2022-09-25T08:45:55.457Z,9.82
2022-09-25T09:16:09.723Z,9.25
2022-09-25T09:46:30.308Z,9.93
2022-09-25T10:16:46.275Z,6.15
2022-09-25T10:47:12.886Z,9.60
2022-09-25T11:17:39.913Z,10.10
2022-09-25T11:48:01.891Z,13.40
2022-09-25T12:18:20.697Z,13.95
2022-09-25T12:48:40.245Z,13.18
2022-09-25T13:19:16.297Z,13.45
2022-09-25T13:49:54.657Z,14.05
2022-09-25T14:20:31.556Z,14.30
2022-09-25T14:50:47.652Z,15.77
2022-09-25T15:20:59.872Z,17.97
2022-09-25T15:51:21.103Z,20.03
2022-09-25T16:21:42.585Z,21.17
2022-09-25T16:51:56.030Z,23.73
2022-09-25T17:22:14.287Z,24.20
2022-09-25T17:52:27.316Z,36.90
2022-09-25T18:22:39.375Z,36.60
2022-09-25T18:52:48.421Z,31.13
2022-09-25T19:22:58.047Z,15.43
2022-09-25T19:53:06.689Z,10.60
2022-09-25T20:23:23.914Z,7.60
2022-09-25T20:53:32.743Z,9.73
2022-09-25T21:23:45.546Z,12.47
2022-09-25T21:53:55.788Z,15.47
2022-09-25T22:24:04.646Z,12.57
2022-09-25T22:54:15.545Z,19.80
2022-09-25T23:24:31.587Z,14.03
2022-09-25T23:54:40.680Z,18.73
